sensor_id;sensor_type;location;lat;lon;timestamp;P1;durP1;ratioP1;P2;durP2;ratioP2
53875;SDS011;39789;53.216;5.624;2023-08-01T00:01:30;8.15;;;3.58;;
53875;SDS011;39789;53.216;5.624;2023-08-01T00:03:56;8.75;;;3.42;;
53875;SDS011;39789;53.216;5.624;2023-08-01T00:06:21;7.90;;;3.67;;
53875;SDS011;39789;53.216;5.624;2023-08-01T00:08:49;22.20;;;3.97;;
53875;SDS011;39789;53.216;5.624;2023-08-01T00:11:15;14.63;;;3.75;;
53875;SDS011;39789;53.216;5.624;2023-08-01T00:13:41;8.38;;;3.05;;
53875;SDS011;39789;53.216;5.624;2023-08-01T00:16:08;16.65;;;3.40;;
53875;SDS011;39789;53.216;5.624;2023-08-01T00:18:34;6.53;;;3.28;;
53875;SDS011;39789;53.216;5.624;2023-08-01T00:21:00;11.18;;;3.45;;
53875;SDS011;39789;53.216;5.624;2023-08-01T00:23:25;10.52;;;4.10;;
53875;SDS011;39789;53.216;5.624;2023-08-01T00:25:51;9.00;;;2.97;;
53875;SDS011;39789;53.216;5.624;2023-08-01T00:28:21;15.20;;;3.88;;
53875;SDS011;39789;53.216;5.624;2023-08-01T00:30:47;7.60;;;3.60;;
53875;SDS011;39789;53.216;5.624;2023-08-01T00:33:13;7.38;;;3.35;;
53875;SDS011;39789;53.216;5.624;2023-08-01T00:35:39;12.65;;;3.40;;
53875;SDS011;39789;53.216;5.624;2023-08-01T00:38:05;10.23;;;3.50;;
53875;SDS011;39789;53.216;5.624;2023-08-01T00:40:31;9.60;;;3.40;;
53875;SDS011;39789;53.216;5.624;2023-08-01T00:42:58;10.82;;;4.72;;
53875;SDS011;39789;53.216;5.624;2023-08-01T00:45:24;9.60;;;3.40;;
53875;SDS011;39789;53.216;5.624;2023-08-01T00:47:57;8.70;;;3.47;;
53875;SDS011;39789;53.216;5.624;2023-08-01T00:50:25;8.05;;;3.08;;
53875;SDS011;39789;53.216;5.624;2023-08-01T00:52:51;8.05;;;3.38;;
53875;SDS011;39789;53.216;5.624;2023-08-01T00:55:17;6.72;;;3.38;;
53875;SDS011;39789;53.216;5.624;2023-08-01T00:57:44;10.93;;;3.78;;
53875;SDS011;39789;53.216;5.624;2023-08-01T01:00:10;9.80;;;3.45;;
53875;SDS011;39789;53.216;5.624;2023-08-01T01:02:36;11.80;;;3.58;;
53875;SDS011;39789;53.216;5.624;2023-08-01T01:05:02;9.27;;;4.30;;
53875;SDS011;39789;53.216;5.624;2023-08-01T01:07:29;8.57;;;3.47;;
53875;SDS011;39789;53.216;5.624;2023-08-01T01:09:55;10.73;;;4.07;;
53875;SDS011;39789;53.216;5.624;2023-08-01T01:12:21;11.35;;;4.47;;
53875;SDS011;39789;53.216;5.624;2023-08-01T01:14:46;7.63;;;4.05;;
53875;SDS011;39789;53.216;5.624;2023-08-01T01:17:12;10.95;;;3.70;;
53875;SDS011;39789;53.216;5.624;2023-08-01T01:19:38;14.07;;;4.20;;
53875;SDS011;39789;53.216;5.624;2023-08-01T01:22:04;12.60;;;4.15;;
53875;SDS011;39789;53.216;5.624;2023-08-01T01:24:31;15.18;;;4.80;;
53875;SDS011;39789;53.216;5.624;2023-08-01T01:27:00;9.88;;;3.83;;
53875;SDS011;39789;53.216;5.624;2023-08-01T01:29:29;9.48;;;4.22;;
53875;SDS011;39789;53.216;5.624;2023-08-01T01:31:55;8.30;;;4.50;;
53875;SDS011;39789;53.216;5.624;2023-08-01T01:34:22;8.20;;;3.80;;
53875;SDS011;39789;53.216;5.624;2023-08-01T01:36:48;12.57;;;3.88;;
53875;SDS011;39789;53.216;5.624;2023-08-01T01:39:14;11.50;;;4.28;;
53875;SDS011;39789;53.216;5.624;2023-08-01T01:41:41;6.90;;;3.67;;
53875;SDS011;39789;53.216;5.624;2023-08-01T01:44:06;10.25;;;3.70;;
53875;SDS011;39789;53.216;5.624;2023-08-01T01:46:32;6.05;;;2.97;;
53875;SDS011;39789;53.216;5.624;2023-08-01T01:48:58;10.68;;;3.80;;
53875;SDS011;39789;53.216;5.624;2023-08-01T01:51:25;11.20;;;4.57;;
53875;SDS011;39789;53.216;5.624;2023-08-01T01:53:51;12.00;;;4.20;;
53875;SDS011;39789;53.216;5.624;2023-08-01T01:56:16;15.68;;;5.90;;
53875;SDS011;39789;53.216;5.624;2023-08-01T01:58:42;16.02;;;5.55;;
53875;SDS011;39789;53.216;5.624;2023-08-01T02:01:08;15.00;;;5.25;;
53875;SDS011;39789;53.216;5.624;2023-08-01T02:03:33;8.70;;;4.10;;
53875;SDS011;39789;53.216;5.624;2023-08-01T02:05:59;7.03;;;4.03;;
53875;SDS011;39789;53.216;5.624;2023-08-01T02:08:24;8.75;;;3.20;;
53875;SDS011;39789;53.216;5.624;2023-08-01T02:10:50;17.88;;;3.85;;
53875;SDS011;39789;53.216;5.624;2023-08-01T02:13:16;12.40;;;3.55;;
53875;SDS011;39789;53.216;5.624;2023-08-01T02:15:41;14.02;;;3.30;;
53875;SDS011;39789;53.216;5.624;2023-08-01T02:18:07;16.83;;;3.40;;
53875;SDS011;39789;53.216;5.624;2023-08-01T02:20:32;13.35;;;3.25;;
53875;SDS011;39789;53.216;5.624;2023-08-01T02:22:58;9.77;;;3.05;;
53875;SDS011;39789;53.216;5.624;2023-08-01T02:25:23;9.48;;;2.28;;
53875;SDS011;39789;53.216;5.624;2023-08-01T02:27:49;11.27;;;2.28;;
53875;SDS011;39789;53.216;5.624;2023-08-01T02:30:15;6.70;;;2.08;;
53875;SDS011;39789;53.216;5.624;2023-08-01T02:32:40;8.32;;;1.88;;
53875;SDS011;39789;53.216;5.624;2023-08-01T02:35:07;4.65;;;1.83;;
53875;SDS011;39789;53.216;5.624;2023-08-01T02:37:33;9.93;;;2.00;;
53875;SDS011;39789;53.216;5.624;2023-08-01T02:39:58;4.80;;;1.70;;
53875;SDS011;39789;53.216;5.624;2023-08-01T02:42:24;5.53;;;1.60;;
53875;SDS011;39789;53.216;5.624;2023-08-01T02:44:49;8.68;;;3.33;;
53875;SDS011;39789;53.216;5.624;2023-08-01T02:47:15;9.32;;;2.63;;
53875;SDS011;39789;53.216;5.624;2023-08-01T02:49:40;7.53;;;1.83;;
53875;SDS011;39789;53.216;5.624;2023-08-01T02:52:06;7.28;;;2.00;;
53875;SDS011;39789;53.216;5.624;2023-08-01T02:54:32;6.22;;;2.20;;
53875;SDS011;39789;53.216;5.624;2023-08-01T02:56:57;6.45;;;2.25;;
53875;SDS011;39789;53.216;5.624;2023-08-01T02:59:23;6.88;;;2.20;;
53875;SDS011;39789;53.216;5.624;2023-08-01T03:01:49;6.55;;;2.05;;
53875;SDS011;39789;53.216;5.624;2023-08-01T03:04:14;7.65;;;1.88;;
53875;SDS011;39789;53.216;5.624;2023-08-01T03:06:40;11.68;;;2.55;;
53875;SDS011;39789;53.216;5.624;2023-08-01T03:09:05;6.32;;;2.67;;
53875;SDS011;39789;53.216;5.624;2023-08-01T03:11:33;9.75;;;1.95;;
53875;SDS011;39789;53.216;5.624;2023-08-01T03:14:00;9.23;;;1.92;;
53875;SDS011;39789;53.216;5.624;2023-08-01T03:16:26;7.82;;;1.77;;
53875;SDS011;39789;53.216;5.624;2023-08-01T03:18:51;10.40;;;1.92;;
53875;SDS011;39789;53.216;5.624;2023-08-01T03:21:17;7.78;;;2.00;;
53875;SDS011;39789;53.216;5.624;2023-08-01T03:23:43;6.05;;;1.73;;
53875;SDS011;39789;53.216;5.624;2023-08-01T03:26:08;6.93;;;1.83;;
53875;SDS011;39789;53.216;5.624;2023-08-01T03:28:34;10.55;;;1.95;;
53875;SDS011;39789;53.216;5.624;2023-08-01T03:31:00;14.50;;;2.58;;
53875;SDS011;39789;53.216;5.624;2023-08-01T03:33:26;7.50;;;2.25;;
53875;SDS011;39789;53.216;5.624;2023-08-01T03:35:52;9.88;;;2.38;;
53875;SDS011;39789;53.216;5.624;2023-08-01T03:38:17;4.57;;;1.65;;
53875;SDS011;39789;53.216;5.624;2023-08-01T03:40:43;10.20;;;1.90;;
53875;SDS011;39789;53.216;5.624;2023-08-01T03:43:08;10.05;;;2.42;;
53875;SDS011;39789;53.216;5.624;2023-08-01T03:45:35;8.65;;;2.20;;
53875;SDS011;39789;53.216;5.624;2023-08-01T03:48:00;9.65;;;2.35;;
53875;SDS011;39789;53.216;5.624;2023-08-01T03:50:26;19.60;;;2.53;;
53875;SDS011;39789;53.216;5.624;2023-08-01T03:52:52;9.15;;;2.40;;
53875;SDS011;39789;53.216;5.624;2023-08-01T03:55:17;7.45;;;2.45;;
53875;SDS011;39789;53.216;5.624;2023-08-01T03:57:43;9.60;;;3.20;;
53875;SDS011;39789;53.216;5.624;2023-08-01T04:00:09;5.57;;;2.67;;
53875;SDS011;39789;53.216;5.624;2023-08-01T04:02:43;8.85;;;3.00;;
53875;SDS011;39789;53.216;5.624;2023-08-01T04:05:09;5.78;;;2.72;;
53875;SDS011;39789;53.216;5.624;2023-08-01T04:07:38;7.50;;;2.83;;
53875;SDS011;39789;53.216;5.624;2023-08-01T04:10:04;8.52;;;2.97;;
53875;SDS011;39789;53.216;5.624;2023-08-01T04:12:33;7.07;;;2.80;;
53875;SDS011;39789;53.216;5.624;2023-08-01T04:14:59;7.30;;;2.33;;
53875;SDS011;39789;53.216;5.624;2023-08-01T04:17:25;7.55;;;3.53;;
53875;SDS011;39789;53.216;5.624;2023-08-01T04:19:51;5.28;;;2.30;;
53875;SDS011;39789;53.216;5.624;2023-08-01T04:22:17;7.30;;;2.45;;
53875;SDS011;39789;53.216;5.624;2023-08-01T04:24:43;6.43;;;2.25;;
53875;SDS011;39789;53.216;5.624;2023-08-01T04:27:09;7.15;;;2.70;;
53875;SDS011;39789;53.216;5.624;2023-08-01T04:29:34;5.63;;;1.95;;
53875;SDS011;39789;53.216;5.624;2023-08-01T04:32:00;6.22;;;2.13;;
53875;SDS011;39789;53.216;5.624;2023-08-01T04:34:26;10.82;;;2.75;;
53875;SDS011;39789;53.216;5.624;2023-08-01T04:36:51;7.53;;;2.88;;
53875;SDS011;39789;53.216;5.624;2023-08-01T04:39:17;6.93;;;2.17;;
53875;SDS011;39789;53.216;5.624;2023-08-01T04:41:42;8.68;;;2.92;;
53875;SDS011;39789;53.216;5.624;2023-08-01T04:44:08;9.50;;;2.63;;
53875;SDS011;39789;53.216;5.624;2023-08-01T04:46:34;8.70;;;2.50;;
53875;SDS011;39789;53.216;5.624;2023-08-01T04:48:59;5.07;;;2.30;;
53875;SDS011;39789;53.216;5.624;2023-08-01T04:51:25;8.80;;;2.03;;
53875;SDS011;39789;53.216;5.624;2023-08-01T04:53:51;2.33;;;1.13;;
53875;SDS011;39789;53.216;5.624;2023-08-01T04:56:17;3.53;;;1.17;;
53875;SDS011;39789;53.216;5.624;2023-08-01T04:58:42;11.95;;;1.75;;
53875;SDS011;39789;53.216;5.624;2023-08-01T05:01:08;10.80;;;2.10;;
53875;SDS011;39789;53.216;5.624;2023-08-01T05:03:33;8.55;;;1.77;;
53875;SDS011;39789;53.216;5.624;2023-08-01T05:05:59;5.22;;;1.60;;
53875;SDS011;39789;53.216;5.624;2023-08-01T05:08:24;11.15;;;1.73;;
53875;SDS011;39789;53.216;5.624;2023-08-01T05:10:50;7.53;;;2.35;;
53875;SDS011;39789;53.216;5.624;2023-08-01T05:13:16;8.25;;;1.85;;
53875;SDS011;39789;53.216;5.624;2023-08-01T05:15:44;6.20;;;1.83;;
53875;SDS011;39789;53.216;5.624;2023-08-01T05:18:12;11.23;;;2.30;;
53875;SDS011;39789;53.216;5.624;2023-08-01T05:20:39;9.13;;;2.58;;
53875;SDS011;39789;53.216;5.624;2023-08-01T05:23:04;6.13;;;1.80;;
53875;SDS011;39789;53.216;5.624;2023-08-01T05:25:30;8.80;;;2.25;;
53875;SDS011;39789;53.216;5.624;2023-08-01T05:27:55;10.98;;;2.47;;
53875;SDS011;39789;53.216;5.624;2023-08-01T05:30:21;5.93;;;1.85;;
53875;SDS011;39789;53.216;5.624;2023-08-01T05:32:46;9.20;;;2.25;;
53875;SDS011;39789;53.216;5.624;2023-08-01T05:35:12;6.78;;;1.60;;
53875;SDS011;39789;53.216;5.624;2023-08-01T05:37:38;8.20;;;1.85;;
53875;SDS011;39789;53.216;5.624;2023-08-01T05:40:04;10.48;;;1.50;;
53875;SDS011;39789;53.216;5.624;2023-08-01T05:42:30;6.90;;;2.00;;
53875;SDS011;39789;53.216;5.624;2023-08-01T05:44:55;10.65;;;2.28;;
53875;SDS011;39789;53.216;5.624;2023-08-01T05:47:21;12.05;;;3.05;;
53875;SDS011;39789;53.216;5.624;2023-08-01T05:49:47;5.63;;;1.90;;
53875;SDS011;39789;53.216;5.624;2023-08-01T05:52:13;6.45;;;1.67;;
53875;SDS011;39789;53.216;5.624;2023-08-01T05:54:39;5.03;;;1.33;;
53875;SDS011;39789;53.216;5.624;2023-08-01T05:57:05;10.48;;;2.05;;
53875;SDS011;39789;53.216;5.624;2023-08-01T05:59:32;7.90;;;1.90;;
53875;SDS011;39789;53.216;5.624;2023-08-01T06:01:57;6.70;;;1.58;;
53875;SDS011;39789;53.216;5.624;2023-08-01T06:04:23;6.78;;;2.10;;
53875;SDS011;39789;53.216;5.624;2023-08-01T06:06:49;7.28;;;2.08;;
53875;SDS011;39789;53.216;5.624;2023-08-01T06:09:14;9.85;;;2.05;;
53875;SDS011;39789;53.216;5.624;2023-08-01T06:11:40;5.53;;;1.85;;
53875;SDS011;39789;53.216;5.624;2023-08-01T06:14:06;9.32;;;1.98;;
53875;SDS011;39789;53.216;5.624;2023-08-01T06:16:31;9.77;;;2.65;;
53875;SDS011;39789;53.216;5.624;2023-08-01T06:18:57;5.70;;;1.80;;
53875;SDS011;39789;53.216;5.624;2023-08-01T06:21:23;6.60;;;2.13;;
53875;SDS011;39789;53.216;5.624;2023-08-01T06:23:49;4.30;;;1.60;;
53875;SDS011;39789;53.216;5.624;2023-08-01T06:26:15;20.40;;;2.38;;
53875;SDS011;39789;53.216;5.624;2023-08-01T06:28:40;9.70;;;2.15;;
53875;SDS011;39789;53.216;5.624;2023-08-01T06:31:06;7.00;;;2.00;;
53875;SDS011;39789;53.216;5.624;2023-08-01T06:33:32;5.35;;;2.00;;
53875;SDS011;39789;53.216;5.624;2023-08-01T06:35:58;13.55;;;2.58;;
53875;SDS011;39789;53.216;5.624;2023-08-01T06:38:23;9.65;;;2.05;;
53875;SDS011;39789;53.216;5.624;2023-08-01T06:40:49;6.47;;;2.30;;
53875;SDS011;39789;53.216;5.624;2023-08-01T06:43:14;7.60;;;1.90;;
53875;SDS011;39789;53.216;5.624;2023-08-01T06:45:40;8.70;;;2.35;;
53875;SDS011;39789;53.216;5.624;2023-08-01T06:48:05;11.95;;;3.20;;
53875;SDS011;39789;53.216;5.624;2023-08-01T06:50:31;8.38;;;2.25;;
53875;SDS011;39789;53.216;5.624;2023-08-01T06:52:57;11.95;;;2.97;;
53875;SDS011;39789;53.216;5.624;2023-08-01T06:55:22;7.18;;;2.40;;
53875;SDS011;39789;53.216;5.624;2023-08-01T06:57:48;15.75;;;3.25;;
53875;SDS011;39789;53.216;5.624;2023-08-01T07:00:13;10.48;;;2.42;;
53875;SDS011;39789;53.216;5.624;2023-08-01T07:02:39;9.35;;;2.30;;
53875;SDS011;39789;53.216;5.624;2023-08-01T07:05:05;15.52;;;2.78;;
53875;SDS011;39789;53.216;5.624;2023-08-01T07:07:31;7.60;;;2.60;;
53875;SDS011;39789;53.216;5.624;2023-08-01T07:09:56;14.75;;;3.47;;
53875;SDS011;39789;53.216;5.624;2023-08-01T07:12:22;9.50;;;2.13;;
53875;SDS011;39789;53.216;5.624;2023-08-01T07:14:47;8.82;;;2.78;;
53875;SDS011;39789;53.216;5.624;2023-08-01T07:17:13;9.40;;;2.28;;
53875;SDS011;39789;53.216;5.624;2023-08-01T07:19:38;12.38;;;3.33;;
53875;SDS011;39789;53.216;5.624;2023-08-01T07:22:04;9.73;;;2.38;;
53875;SDS011;39789;53.216;5.624;2023-08-01T07:24:29;12.15;;;3.30;;
53875;SDS011;39789;53.216;5.624;2023-08-01T07:26:55;10.30;;;3.58;;
53875;SDS011;39789;53.216;5.624;2023-08-01T07:29:20;13.85;;;3.42;;
53875;SDS011;39789;53.216;5.624;2023-08-01T07:31:46;17.45;;;3.33;;
53875;SDS011;39789;53.216;5.624;2023-08-01T07:34:12;8.52;;;2.33;;
53875;SDS011;39789;53.216;5.624;2023-08-01T07:36:37;13.60;;;2.88;;
53875;SDS011;39789;53.216;5.624;2023-08-01T07:39:03;8.27;;;2.22;;
53875;SDS011;39789;53.216;5.624;2023-08-01T07:41:29;9.98;;;2.33;;
53875;SDS011;39789;53.216;5.624;2023-08-01T07:43:55;7.30;;;1.90;;
53875;SDS011;39789;53.216;5.624;2023-08-01T07:46:20;7.43;;;2.45;;
53875;SDS011;39789;53.216;5.624;2023-08-01T07:48:46;4.85;;;1.98;;
53875;SDS011;39789;53.216;5.624;2023-08-01T07:51:11;7.72;;;2.25;;
53875;SDS011;39789;53.216;5.624;2023-08-01T07:53:37;7.65;;;2.00;;
53875;SDS011;39789;53.216;5.624;2023-08-01T07:56:03;7.38;;;2.55;;
53875;SDS011;39789;53.216;5.624;2023-08-01T07:58:31;10.98;;;2.58;;
53875;SDS011;39789;53.216;5.624;2023-08-01T08:01:01;9.77;;;2.53;;
53875;SDS011;39789;53.216;5.624;2023-08-01T08:03:30;7.97;;;2.88;;
53875;SDS011;39789;53.216;5.624;2023-08-01T08:05:56;7.97;;;2.50;;
53875;SDS011;39789;53.216;5.624;2023-08-01T08:08:22;8.25;;;2.50;;
53875;SDS011;39789;53.216;5.624;2023-08-01T08:10:48;11.15;;;1.85;;
53875;SDS011;39789;53.216;5.624;2023-08-01T08:13:14;9.30;;;2.70;;
53875;SDS011;39789;53.216;5.624;2023-08-01T08:15:39;5.63;;;2.17;;
53875;SDS011;39789;53.216;5.624;2023-08-01T08:18:05;7.15;;;1.60;;
53875;SDS011;39789;53.216;5.624;2023-08-01T08:20:31;5.93;;;1.77;;
53875;SDS011;39789;53.216;5.624;2023-08-01T08:23:05;5.22;;;1.60;;
53875;SDS011;39789;53.216;5.624;2023-08-01T08:25:30;8.95;;;2.47;;
53875;SDS011;39789;53.216;5.624;2023-08-01T08:27:56;6.05;;;1.90;;
53875;SDS011;39789;53.216;5.624;2023-08-01T08:30:21;8.23;;;2.00;;
53875;SDS011;39789;53.216;5.624;2023-08-01T08:32:47;4.82;;;1.73;;
53875;SDS011;39789;53.216;5.624;2023-08-01T08:35:12;8.02;;;1.52;;
53875;SDS011;39789;53.216;5.624;2023-08-01T08:37:38;7.70;;;2.15;;
53875;SDS011;39789;53.216;5.624;2023-08-01T08:40:04;8.70;;;2.17;;
53875;SDS011;39789;53.216;5.624;2023-08-01T08:42:32;9.15;;;2.10;;
53875;SDS011;39789;53.216;5.624;2023-08-01T08:44:58;10.23;;;1.90;;
53875;SDS011;39789;53.216;5.624;2023-08-01T08:47:26;6.93;;;1.95;;
53875;SDS011;39789;53.216;5.624;2023-08-01T08:49:57;6.05;;;1.85;;
53875;SDS011;39789;53.216;5.624;2023-08-01T08:52:23;8.15;;;2.40;;
53875;SDS011;39789;53.216;5.624;2023-08-01T08:54:50;4.40;;;1.65;;
53875;SDS011;39789;53.216;5.624;2023-08-01T08:57:16;7.75;;;2.22;;
53875;SDS011;39789;53.216;5.624;2023-08-01T08:59:44;6.35;;;2.20;;
53875;SDS011;39789;53.216;5.624;2023-08-01T09:02:11;7.55;;;2.10;;
53875;SDS011;39789;53.216;5.624;2023-08-01T09:04:39;8.07;;;2.35;;
53875;SDS011;39789;53.216;5.624;2023-08-01T09:07:07;6.88;;;2.33;;
53875;SDS011;39789;53.216;5.624;2023-08-01T09:09:34;8.38;;;2.65;;
53875;SDS011;39789;53.216;5.624;2023-08-01T09:12:00;8.85;;;3.00;;
53875;SDS011;39789;53.216;5.624;2023-08-01T09:14:25;7.60;;;2.53;;
53875;SDS011;39789;53.216;5.624;2023-08-01T09:16:51;8.40;;;2.60;;
53875;SDS011;39789;53.216;5.624;2023-08-01T09:19:18;10.50;;;2.30;;
53875;SDS011;39789;53.216;5.624;2023-08-01T09:21:44;9.73;;;2.67;;
53875;SDS011;39789;53.216;5.624;2023-08-01T09:24:14;7.35;;;2.00;;
53875;SDS011;39789;53.216;5.624;2023-08-01T09:26:44;8.05;;;2.30;;
53875;SDS011;39789;53.216;5.624;2023-08-01T09:29:11;7.35;;;2.10;;
53875;SDS011;39789;53.216;5.624;2023-08-01T09:31:38;6.05;;;1.73;;
53875;SDS011;39789;53.216;5.624;2023-08-01T09:34:05;7.00;;;1.67;;
53875;SDS011;39789;53.216;5.624;2023-08-01T09:36:42;3.85;;;1.75;;
53875;SDS011;39789;53.216;5.624;2023-08-01T09:39:07;7.45;;;2.13;;
53875;SDS011;39789;53.216;5.624;2023-08-01T09:41:33;4.97;;;2.08;;
53875;SDS011;39789;53.216;5.624;2023-08-01T09:43:59;6.63;;;2.00;;
53875;SDS011;39789;53.216;5.624;2023-08-01T09:46:24;7.60;;;1.88;;
53875;SDS011;39789;53.216;5.624;2023-08-01T09:48:50;5.65;;;1.58;;
53875;SDS011;39789;53.216;5.624;2023-08-01T09:51:17;9.15;;;2.05;;
53875;SDS011;39789;53.216;5.624;2023-08-01T09:53:55;8.48;;;1.85;;
53875;SDS011;39789;53.216;5.624;2023-08-01T09:56:22;5.80;;;2.20;;
53875;SDS011;39789;53.216;5.624;2023-08-01T09:58:49;8.52;;;2.10;;
53875;SDS011;39789;53.216;5.624;2023-08-01T10:01:17;6.22;;;1.77;;
53875;SDS011;39789;53.216;5.624;2023-08-01T10:03:46;9.02;;;1.90;;
53875;SDS011;39789;53.216;5.624;2023-08-01T10:06:14;7.22;;;2.15;;
53875;SDS011;39789;53.216;5.624;2023-08-01T10:08:44;5.07;;;1.65;;
53875;SDS011;39789;53.216;5.624;2023-08-01T10:11:11;8.35;;;2.13;;
53875;SDS011;39789;53.216;5.624;2023-08-01T10:13:39;7.60;;;2.13;;
53875;SDS011;39789;53.216;5.624;2023-08-01T10:16:06;5.95;;;2.03;;
53875;SDS011;39789;53.216;5.624;2023-08-01T10:18:33;6.90;;;2.03;;
53875;SDS011;39789;53.216;5.624;2023-08-01T10:20:59;7.68;;;2.53;;
53875;SDS011;39789;53.216;5.624;2023-08-01T10:23:26;7.68;;;2.13;;
53875;SDS011;39789;53.216;5.624;2023-08-01T10:25:52;5.35;;;2.30;;
53875;SDS011;39789;53.216;5.624;2023-08-01T10:28:19;7.65;;;2.55;;
53875;SDS011;39789;53.216;5.624;2023-08-01T10:30:55;10.55;;;1.98;;
53875;SDS011;39789;53.216;5.624;2023-08-01T10:33:34;5.95;;;1.70;;
53875;SDS011;39789;53.216;5.624;2023-08-01T10:36:11;5.35;;;2.03;;
53875;SDS011;39789;53.216;5.624;2023-08-01T10:38:44;5.47;;;1.65;;
53875;SDS011;39789;53.216;5.624;2023-08-01T10:41:18;9.23;;;2.42;;
53875;SDS011;39789;53.216;5.624;2023-08-01T10:44:06;7.50;;;1.80;;
53875;SDS011;39789;53.216;5.624;2023-08-01T10:46:45;7.00;;;1.58;;
53875;SDS011;39789;53.216;5.624;2023-08-01T10:49:11;5.90;;;1.90;;
53875;SDS011;39789;53.216;5.624;2023-08-01T10:51:37;7.10;;;2.10;;
53875;SDS011;39789;53.216;5.624;2023-08-01T10:54:02;6.85;;;2.10;;
53875;SDS011;39789;53.216;5.624;2023-08-01T10:56:28;6.53;;;2.38;;
53875;SDS011;39789;53.216;5.624;2023-08-01T10:58:56;10.02;;;2.13;;
53875;SDS011;39789;53.216;5.624;2023-08-01T11:01:22;10.63;;;2.75;;
53875;SDS011;39789;53.216;5.624;2023-08-01T11:03:48;8.48;;;2.80;;
53875;SDS011;39789;53.216;5.624;2023-08-01T11:06:13;9.38;;;2.55;;
53875;SDS011;39789;53.216;5.624;2023-08-01T11:08:39;9.35;;;3.35;;
53875;SDS011;39789;53.216;5.624;2023-08-01T11:11:07;8.63;;;2.60;;
53875;SDS011;39789;53.216;5.624;2023-08-01T11:13:36;6.07;;;2.25;;
53875;SDS011;39789;53.216;5.624;2023-08-01T11:16:02;8.05;;;2.60;;
53875;SDS011;39789;53.216;5.624;2023-08-01T11:18:28;6.53;;;2.80;;
53875;SDS011;39789;53.216;5.624;2023-08-01T11:20:55;8.02;;;2.58;;
53875;SDS011;39789;53.216;5.624;2023-08-01T11:23:27;11.07;;;3.00;;
53875;SDS011;39789;53.216;5.624;2023-08-01T11:25:54;6.05;;;1.88;;
53875;SDS011;39789;53.216;5.624;2023-08-01T11:28:20;8.38;;;2.05;;
53875;SDS011;39789;53.216;5.624;2023-08-01T11:30:48;5.97;;;2.03;;
53875;SDS011;39789;53.216;5.624;2023-08-01T11:33:20;8.68;;;2.30;;
53875;SDS011;39789;53.216;5.624;2023-08-01T11:35:56;7.20;;;2.23;;
53875;SDS011;39789;53.216;5.624;2023-08-01T11:38:26;7.97;;;2.42;;
53875;SDS011;39789;53.216;5.624;2023-08-01T11:40:54;8.73;;;2.47;;
53875;SDS011;39789;53.216;5.624;2023-08-01T11:43:22;7.72;;;2.47;;
53875;SDS011;39789;53.216;5.624;2023-08-01T11:45:51;5.10;;;1.77;;
53875;SDS011;39789;53.216;5.624;2023-08-01T11:48:22;6.50;;;1.85;;
53875;SDS011;39789;53.216;5.624;2023-08-01T11:50:48;4.95;;;2.65;;
53875;SDS011;39789;53.216;5.624;2023-08-01T11:53:21;4.35;;;2.30;;
53875;SDS011;39789;53.216;5.624;2023-08-01T11:55:51;11.45;;;2.78;;
53875;SDS011;39789;53.216;5.624;2023-08-01T11:58:30;6.82;;;2.17;;
53875;SDS011;39789;53.216;5.624;2023-08-01T12:01:04;6.00;;;1.73;;
53875;SDS011;39789;53.216;5.624;2023-08-01T12:03:43;9.50;;;2.15;;
53875;SDS011;39789;53.216;5.624;2023-08-01T12:06:14;3.97;;;1.80;;
53875;SDS011;39789;53.216;5.624;2023-08-01T12:08:43;5.55;;;2.33;;
53875;SDS011;39789;53.216;5.624;2023-08-01T12:11:17;7.90;;;1.95;;
53875;SDS011;39789;53.216;5.624;2023-08-01T12:13:44;13.25;;;2.00;;
53875;SDS011;39789;53.216;5.624;2023-08-01T12:16:10;10.35;;;1.92;;
53875;SDS011;39789;53.216;5.624;2023-08-01T12:18:38;4.88;;;1.63;;
53875;SDS011;39789;53.216;5.624;2023-08-01T12:21:04;6.43;;;2.20;;
53875;SDS011;39789;53.216;5.624;2023-08-01T12:23:30;10.90;;;2.55;;
53875;SDS011;39789;53.216;5.624;2023-08-01T12:25:56;9.82;;;2.20;;
53875;SDS011;39789;53.216;5.624;2023-08-01T12:28:22;7.50;;;2.65;;
53875;SDS011;39789;53.216;5.624;2023-08-01T12:30:47;7.45;;;2.13;;
53875;SDS011;39789;53.216;5.624;2023-08-01T12:33:14;6.57;;;2.20;;
53875;SDS011;39789;53.216;5.624;2023-08-01T12:35:40;5.55;;;1.73;;
53875;SDS011;39789;53.216;5.624;2023-08-01T12:38:06;5.07;;;1.45;;
53875;SDS011;39789;53.216;5.624;2023-08-01T12:40:32;5.95;;;1.90;;
53875;SDS011;39789;53.216;5.624;2023-08-01T12:42:58;6.20;;;2.10;;
53875;SDS011;39789;53.216;5.624;2023-08-01T12:45:24;9.38;;;1.95;;
53875;SDS011;39789;53.216;5.624;2023-08-01T12:47:49;2.60;;;1.40;;
53875;SDS011;39789;53.216;5.624;2023-08-01T12:50:15;1.60;;;1.35;;
53875;SDS011;39789;53.216;5.624;2023-08-01T12:52:41;5.97;;;1.50;;
53875;SDS011;39789;53.216;5.624;2023-08-01T12:55:06;7.43;;;2.25;;
53875;SDS011;39789;53.216;5.624;2023-08-01T12:57:33;6.05;;;2.28;;
53875;SDS011;39789;53.216;5.624;2023-08-01T12:59:59;2.90;;;1.60;;
53875;SDS011;39789;53.216;5.624;2023-08-01T13:02:26;8.02;;;2.13;;
53875;SDS011;39789;53.216;5.624;2023-08-01T13:04:52;5.93;;;1.58;;
53875;SDS011;39789;53.216;5.624;2023-08-01T13:07:17;8.48;;;1.95;;
53875;SDS011;39789;53.216;5.624;2023-08-01T13:09:43;7.85;;;1.70;;
53875;SDS011;39789;53.216;5.624;2023-08-01T13:12:08;13.05;;;2.03;;
53875;SDS011;39789;53.216;5.624;2023-08-01T13:14:34;5.50;;;1.90;;
53875;SDS011;39789;53.216;5.624;2023-08-01T13:17:00;12.13;;;2.22;;
53875;SDS011;39789;53.216;5.624;2023-08-01T13:19:25;7.30;;;2.00;;
53875;SDS011;39789;53.216;5.624;2023-08-01T13:21:51;5.53;;;1.70;;
53875;SDS011;39789;53.216;5.624;2023-08-01T13:24:17;6.05;;;2.35;;
53875;SDS011;39789;53.216;5.624;2023-08-01T13:26:42;7.22;;;1.60;;
53875;SDS011;39789;53.216;5.624;2023-08-01T13:29:08;10.38;;;1.90;;
53875;SDS011;39789;53.216;5.624;2023-08-01T13:31:33;6.85;;;1.77;;
53875;SDS011;39789;53.216;5.624;2023-08-01T13:33:59;7.15;;;2.17;;
53875;SDS011;39789;53.216;5.624;2023-08-01T13:36:24;13.20;;;2.55;;
53875;SDS011;39789;53.216;5.624;2023-08-01T13:38:50;5.57;;;1.90;;
53875;SDS011;39789;53.216;5.624;2023-08-01T13:41:16;6.65;;;1.52;;
53875;SDS011;39789;53.216;5.624;2023-08-01T13:43:41;2.42;;;0.98;;
53875;SDS011;39789;53.216;5.624;2023-08-01T13:46:12;2.50;;;1.30;;
53875;SDS011;39789;53.216;5.624;2023-08-01T13:48:40;6.20;;;1.35;;
53875;SDS011;39789;53.216;5.624;2023-08-01T13:51:06;1.80;;;0.90;;
53875;SDS011;39789;53.216;5.624;2023-08-01T13:53:32;4.95;;;1.30;;
53875;SDS011;39789;53.216;5.624;2023-08-01T13:55:58;3.45;;;1.42;;
53875;SDS011;39789;53.216;5.624;2023-08-01T13:58:24;5.13;;;1.25;;
53875;SDS011;39789;53.216;5.624;2023-08-01T14:00:50;8.45;;;2.95;;
53875;SDS011;39789;53.216;5.624;2023-08-01T14:03:15;7.95;;;1.95;;
53875;SDS011;39789;53.216;5.624;2023-08-01T14:05:41;8.05;;;2.22;;
53875;SDS011;39789;53.216;5.624;2023-08-01T14:08:06;5.35;;;2.00;;
53875;SDS011;39789;53.216;5.624;2023-08-01T14:10:32;5.72;;;1.70;;
53875;SDS011;39789;53.216;5.624;2023-08-01T14:12:59;9.13;;;2.22;;
53875;SDS011;39789;53.216;5.624;2023-08-01T14:15:24;9.15;;;2.42;;
53875;SDS011;39789;53.216;5.624;2023-08-01T14:17:50;6.25;;;1.80;;
53875;SDS011;39789;53.216;5.624;2023-08-01T14:20:17;3.90;;;1.77;;
53875;SDS011;39789;53.216;5.624;2023-08-01T14:22:42;6.43;;;2.10;;
53875;SDS011;39789;53.216;5.624;2023-08-01T14:25:08;4.63;;;1.83;;
53875;SDS011;39789;53.216;5.624;2023-08-01T14:27:34;4.38;;;1.60;;
53875;SDS011;39789;53.216;5.624;2023-08-01T14:30:00;4.68;;;1.55;;
53875;SDS011;39789;53.216;5.624;2023-08-01T14:32:27;4.50;;;1.30;;
53875;SDS011;39789;53.216;5.624;2023-08-01T14:34:52;8.32;;;1.75;;
53875;SDS011;39789;53.216;5.624;2023-08-01T14:37:18;7.30;;;2.25;;
53875;SDS011;39789;53.216;5.624;2023-08-01T14:39:43;8.52;;;1.83;;
53875;SDS011;39789;53.216;5.624;2023-08-01T14:42:09;8.20;;;2.25;;